Terminal Aerodrome Forecast
Issued by NWS

Home | Current Version | Previous Version | Text Only | Print | Product List | Glossary On
Versions: 1 2 3 4 5 6 7 8 9 10 11 12 13 14 15 16 17 18 19 20 21 22 23 24
000
FTUS42 KMHX 291100
TAFPGV
TAF
KPGV 291140Z 2912/3012 02006KT 6SM -RA BR SCT008 BKN015
     FM291300 03005KT 3SM -RA BR OVC007
     FM300600 02004KT 5SM BR OVC003
      AMD LTD TO CLD VIS AND WIND=

USA.gov is the U.S. government's official web portal to all federal, state and local government web resources and services.